Time;durP1;ratioP1;P1;durP2;ratioP2;P2;SDS_P1;SDS_P2;PMS_P1;PMS_P2;Temp;Humidity;BMP_temperature;BMP_pressure;BME280_temperature;BME280_humidity;BME280_pressure;Samples;Min_cycle;Max_cycle;Signal;HPM_P1;HPM_P2
2021/07/31 00:00:20;;;;;;;4.03;1.80;;;;;;;;;;4977103;28;20481;-75
2021/07/31 00:02:46;;;;;;;5.33;2.00;;;;;;;;;;4993127;28;20493;-76
2021/07/31 00:05:12;;;;;;;5.55;2.10;;;;;;;;;;4994343;28;20038;-75
2021/07/31 00:07:37;;;;;;;4.87;1.97;;;;;;;;;;4993104;28;20033;-75
2021/07/31 00:10:03;;;;;;;5.30;2.00;;;;;;;;;;4994254;28;20050;-75
2021/07/31 00:12:28;;;;;;;4.85;1.88;;;;;;;;;;4992939;28;20034;-75
2021/07/31 00:14:54;;;;;;;4.67;1.90;;;;;;;;;;4992940;28;20084;-76
2021/07/31 00:17:19;;;;;;;4.87;1.83;;;;;;;;;;4993115;28;20054;-75
2021/07/31 00:19:44;;;;;;;5.23;2.10;;;;;;;;;;4993013;28;20062;-75
2021/07/31 00:22:10;;;;;;;5.83;2.23;;;;;;;;;;4994232;28;20058;-75
2021/07/31 00:24:35;;;;;;;5.47;1.93;;;;;;;;;;4992839;28;20522;-75
2021/07/31 00:27:00;;;;;;;4.73;2.07;;;;;;;;;;4994385;28;20556;-76
2021/07/31 00:29:26;;;;;;;4.93;1.83;;;;;;;;;;4976678;28;20113;-76
2021/07/31 00:31:51;;;;;;;6.40;2.20;;;;;;;;;;4992639;28;20073;-75
2021/07/31 00:34:16;;;;;;;4.30;2.10;;;;;;;;;;4992841;28;20132;-76
2021/07/31 00:36:42;;;;;;;6.70;2.30;;;;;;;;;;4993854;28;20029;-76
2021/07/31 00:39:07;;;;;;;5.10;2.10;;;;;;;;;;4976565;28;20083;-75
2021/07/31 00:41:32;;;;;;;4.30;1.90;;;;;;;;;;4993649;28;20068;-75
2021/07/31 00:43:58;;;;;;;5.00;2.10;;;;;;;;;;4993753;28;20054;-76
2021/07/31 00:46:23;;;;;;;5.67;2.20;;;;;;;;;;4992634;28;20101;-75
2021/07/31 00:48:49;;;;;;;5.27;1.90;;;;;;;;;;4993737;28;20489;-75
2021/07/31 00:51:14;;;;;;;5.03;2.23;;;;;;;;;;4992689;28;20046;-75
2021/07/31 00:53:39;;;;;;;4.27;2.03;;;;;;;;;;4979875;28;20065;-75
2021/07/31 00:56:05;;;;;;;4.33;1.90;;;;;;;;;;4996800;28;20061;-75
2021/07/31 00:58:30;;;;;;;4.40;2.13;;;;;;;;;;4980346;28;20028;-75
2021/07/31 01:00:55;;;;;;;5.60;2.27;;;;;;;;;;4996926;28;20032;-75
2021/07/31 01:03:21;;;;;;;5.50;2.20;;;;;;;;;;4964043;28;20060;-76
2021/07/31 01:05:46;;;;;;;4.60;2.00;;;;;;;;;;4996420;28;20073;-75
2021/07/31 01:08:11;;;;;;;3.73;1.90;;;;;;;;;;4997582;28;20060;-76
2021/07/31 01:10:37;;;;;;;4.97;2.10;;;;;;;;;;4996328;28;20062;-75
2021/07/31 01:13:02;;;;;;;5.23;2.20;;;;;;;;;;4996669;28;20054;-76
2021/07/31 01:15:28;;;;;;;5.33;1.97;;;;;;;;;;4979962;28;20045;-75
2021/07/31 01:17:53;;;;;;;5.77;2.40;;;;;;;;;;4996219;28;20441;-75
2021/07/31 01:20:18;;;;;;;4.20;1.90;;;;;;;;;;4997277;28;20026;-75
2021/07/31 01:22:44;;;;;;;5.03;2.10;;;;;;;;;;4979911;28;20050;-76
2021/07/31 01:25:09;;;;;;;4.80;2.00;;;;;;;;;;4996189;28;20105;-76
2021/07/31 01:27:35;;;;;;;5.13;2.20;;;;;;;;;;4979948;28;20507;-75
2021/07/31 01:30:00;;;;;;;5.77;2.17;;;;;;;;;;4997233;28;20478;-75
2021/07/31 01:32:25;;;;;;;6.00;2.10;;;;;;;;;;4979631;28;20030;-75
2021/07/31 01:34:51;;;;;;;4.43;2.17;;;;;;;;;;4996053;28;20030;-76
2021/07/31 01:37:16;;;;;;;5.80;2.20;;;;;;;;;;4995882;28;20440;-75
2021/07/31 01:39:41;;;;;;;4.17;1.90;;;;;;;;;;4995777;28;20430;-76
2021/07/31 01:42:07;;;;;;;6.60;2.30;;;;;;;;;;4995884;28;20030;-76
2021/07/31 01:44:33;;;;;;;4.60;2.00;;;;;;;;;;4995820;28;20165;-76
2021/07/31 01:46:58;;;;;;;5.70;2.08;;;;;;;;;;4995828;28;20037;-75
2021/07/31 01:49:23;;;;;;;5.70;2.10;;;;;;;;;;4996918;28;20504;-75
2021/07/31 01:51:49;;;;;;;6.10;2.30;;;;;;;;;;4995504;28;20077;-76
2021/07/31 01:54:14;;;;;;;6.40;2.20;;;;;;;;;;4995758;28;20026;-76
2021/07/31 01:56:39;;;;;;;4.80;2.10;;;;;;;;;;4980100;28;20062;-76
2021/07/31 01:59:05;;;;;;;4.63;2.00;;;;;;;;;;4995535;28;20054;-76
2021/07/31 02:01:30;;;;;;;5.63;1.93;;;;;;;;;;4996553;28;20503;-75
2021/07/31 02:03:55;;;;;;;5.03;1.93;;;;;;;;;;4994463;28;20512;-75
2021/07/31 02:06:21;;;;;;;4.33;1.80;;;;;;;;;;4995345;28;20536;-76
2021/07/31 02:08:46;;;;;;;4.83;2.20;;;;;;;;;;4995758;28;20385;-76
2021/07/31 02:11:12;;;;;;;5.60;2.10;;;;;;;;;;4979100;28;20524;-76
2021/07/31 02:13:38;;;;;;;;;;;;;;;;;;4995569;28;20057;-76
2021/07/31 02:16:03;;;;;;;4.67;1.80;;;;;;;;;;5011489;28;19957;-76
2021/07/31 02:18:29;;;;;;;5.07;2.10;;;;;;;;;;4995121;28;20022;-75
2021/07/31 02:20:54;;;;;;;7.07;2.03;;;;;;;;;;4996316;28;20026;-76
2021/07/31 02:23:19;;;;;;;4.97;1.93;;;;;;;;;;4996148;28;20081;-76
2021/07/31 02:25:45;;;;;;;4.63;1.70;;;;;;;;;;4995154;28;20505;-76
2021/07/31 02:28:12;;;;;;;4.30;1.80;;;;;;;;;;4996129;28;20546;-76
2021/07/31 02:30:37;;;;;;;3.63;1.92;;;;;;;;;;4979130;28;20039;-76
2021/07/31 02:33:02;;;;;;;5.57;2.10;;;;;;;;;;4994775;28;20077;-76
2021/07/31 02:35:33;;;;;;;4.43;2.27;;;;;;;;;;4978720;28;20109;-76
2021/07/31 02:38:00;;;;;;;5.68;2.20;;;;;;;;;;4996027;28;20054;-76
2021/07/31 02:40:25;;;;;;;4.70;1.90;;;;;;;;;;4994687;28;20023;-76
2021/07/31 02:42:50;;;;;;;5.43;2.00;;;;;;;;;;4994694;28;20073;-76
2021/07/31 02:45:16;;;;;;;5.43;2.07;;;;;;;;;;4994607;28;20058;-75
2021/07/31 02:47:41;;;;;;;4.23;2.13;;;;;;;;;;4994593;28;20065;-75
2021/07/31 02:50:07;;;;;;;5.33;2.10;;;;;;;;;;4995957;28;20050;-75
2021/07/31 02:52:32;;;;;;;4.85;1.90;;;;;;;;;;4994544;28;20029;-76
2021/07/31 02:54:57;;;;;;;5.37;1.80;;;;;;;;;;4994460;28;20121;-75
2021/07/31 02:57:23;;;;;;;4.30;2.07;;;;;;;;;;4994543;28;20109;-75
2021/07/31 02:59:48;;;;;;;5.40;2.00;;;;;;;;;;4995481;28;20108;-76
2021/07/31 03:02:13;;;;;;;5.37;2.13;;;;;;;;;;4978711;28;20112;-76
2021/07/31 03:04:39;;;;;;;3.73;1.70;;;;;;;;;;4994373;28;20053;-76
2021/07/31 03:07:04;;;;;;;3.47;1.60;;;;;;;;;;4994233;28;20046;-75
2021/07/31 03:09:29;;;;;;;4.53;2.00;;;;;;;;;;4995322;28;20058;-76
2021/07/31 03:11:55;;;;;;;5.43;1.93;;;;;;;;;;4995258;28;20042;-75
2021/07/31 03:14:20;;;;;;;4.30;1.83;;;;;;;;;;4995409;28;20438;-75
2021/07/31 03:16:45;;;;;;;5.97;2.10;;;;;;;;;;4995170;28;20062;-75
2021/07/31 03:19:11;;;;;;;5.07;2.00;;;;;;;;;;4995164;28;20026;-76
2021/07/31 03:21:36;;;;;;;5.00;1.90;;;;;;;;;;4993796;28;20054;-75
2021/07/31 03:24:01;;;;;;;5.47;1.83;;;;;;;;;;4995030;28;20100;-76
2021/07/31 03:26:27;;;;;;;5.10;2.20;;;;;;;;;;4994043;28;20113;-75
2021/07/31 03:28:52;;;;;;;3.93;1.60;;;;;;;;;;4977655;28;20022;-75
2021/07/31 03:31:21;;;;;;;4.80;2.07;;;;;;;;;;4994948;28;20624;-75
2021/07/31 03:33:47;;;;;;;4.47;1.92;;;;;;;;;;4993598;28;20390;-75
2021/07/31 03:36:12;;;;;;;4.67;2.07;;;;;;;;;;4977625;28;20025;-75
2021/07/31 03:38:37;;;;;;;6.33;2.20;;;;;;;;;;4994825;28;20434;-76
2021/07/31 03:41:03;;;;;;;5.17;2.10;;;;;;;;;;4993841;28;20061;-75
2021/07/31 03:43:28;;;;;;;5.20;2.03;;;;;;;;;;4993450;28;20065;-76
2021/07/31 03:45:53;;;;;;;5.20;2.13;;;;;;;;;;4993699;28;20072;-75
2021/07/31 03:48:19;;;;;;;5.97;1.87;;;;;;;;;;4993884;28;20074;-76
2021/07/31 03:50:44;;;;;;;4.20;1.70;;;;;;;;;;4993403;28;20119;-76
2021/07/31 03:53:09;;;;;;;4.60;2.00;;;;;;;;;;4993251;28;20018;-75
2021/07/31 03:55:35;;;;;;;4.37;2.10;;;;;;;;;;4993328;28;20113;-76
2021/07/31 03:58:01;;;;;;;5.30;1.97;;;;;;;;;;4993345;28;20058;-75
2021/07/31 04:00:26;;;;;;;5.18;2.08;;;;;;;;;;4993269;28;20026;-76
2021/07/31 04:02:52;;;;;;;4.83;1.90;;;;;;;;;;4976874;28;20101;-75
2021/07/31 04:05:17;;;;;;;4.43;2.07;;;;;;;;;;4993388;28;20022;-76
2021/07/31 04:07:42;;;;;;;4.70;2.00;;;;;;;;;;4993240;28;20033;-76
2021/07/31 04:10:08;;;;;;;4.57;1.73;;;;;;;;;;4976861;28;20079;-76
2021/07/31 04:12:34;;;;;;;5.00;1.92;;;;;;;;;;4994139;28;20042;-76
2021/07/31 04:14:59;;;;;;;4.13;1.53;;;;;;;;;;4992942;28;20137;-76
2021/07/31 04:17:24;;;;;;;5.07;2.00;;;;;;;;;;5068568;23;20061;-75
2021/07/31 04:19:50;;;;;;;4.33;1.80;;;;;;;;;;5032118;28;20067;-75
2021/07/31 04:22:15;;;;;;;5.18;2.00;;;;;;;;;;5015613;28;20499;-75
2021/07/31 04:24:41;;;;;;;5.53;1.93;;;;;;;;;;4999355;28;20056;-75
2021/07/31 04:27:06;;;;;;;4.73;1.77;;;;;;;;;;5015348;28;20515;-75
2021/07/31 04:29:31;;;;;;;4.23;1.90;;;;;;;;;;5032260;28;20053;-75
2021/07/31 04:31:57;;;;;;;4.43;1.77;;;;;;;;;;5015735;28;20068;-75
2021/07/31 04:34:22;;;;;;;3.63;1.67;;;;;;;;;;5032064;28;20107;-75
2021/07/31 04:36:48;;;;;;;3.63;1.80;;;;;;;;;;5032433;28;20433;-75
2021/07/31 04:39:13;;;;;;;6.47;2.00;;;;;;;;;;5015629;28;20060;-75
2021/07/31 04:41:38;;;;;;;5.20;2.07;;;;;;;;;;5031902;28;20555;-75
2021/07/31 04:44:04;;;;;;;5.40;2.17;;;;;;;;;;5015380;28;20571;-75
2021/07/31 04:46:29;;;;;;;5.35;1.90;;;;;;;;;;5031880;28;20021;-75
2021/07/31 04:48:55;;;;;;;5.83;2.17;;;;;;;;;;5015460;28;20040;-75
2021/07/31 04:51:20;;;;;;;4.40;1.80;;;;;;;;;;5031983;28;20117;-75
2021/07/31 04:53:46;;;;;;;6.03;1.80;;;;;;;;;;5031824;28;20053;-75
2021/07/31 04:56:12;;;;;;;4.72;1.92;;;;;;;;;;5015513;28;20031;-75
2021/07/31 04:58:37;;;;;;;4.87;2.00;;;;;;;;;;5015255;28;20112;-75
2021/07/31 05:01:02;;;;;;;4.83;2.03;;;;;;;;;;5031637;28;20056;-75
2021/07/31 05:03:28;;;;;;;4.63;2.00;;;;;;;;;;5031864;28;20060;-75
2021/07/31 05:05:54;;;;;;;5.20;2.07;;;;;;;;;;4998833;28;20021;-75
2021/07/31 05:08:19;;;;;;;5.17;2.20;;;;;;;;;;5015322;28;20268;-75
2021/07/31 05:10:45;;;;;;;3.77;1.80;;;;;;;;;;4998827;28;20052;-75
2021/07/31 05:13:11;;;;;;;5.22;1.77;;;;;;;;;;5015262;28;20037;-75
2021/07/31 05:15:39;;;;;;;4.70;2.10;;;;;;;;;;5015345;28;20034;-75
2021/07/31 05:18:04;;;;;;;5.93;2.10;;;;;;;;;;5015442;28;20163;-75
2021/07/31 05:20:30;;;;;;;4.23;1.67;;;;;;;;;;5015134;28;20044;-75
2021/07/31 05:22:56;;;;;;;4.20;1.87;;;;;;;;;;5014968;28;20033;-75
2021/07/31 05:25:21;;;;;;;4.57;1.67;;;;;;;;;;5015537;28;20268;-75
2021/07/31 05:27:47;;;;;;;4.97;2.03;;;;;;;;;;4998749;28;20037;-75
2021/07/31 05:30:12;;;;;;;5.13;1.80;;;;;;;;;;5015159;28;20045;-75
2021/07/31 05:32:37;;;;;;;4.57;1.93;;;;;;;;;;5015260;28;20534;-75
2021/07/31 05:35:03;;;;;;;5.33;1.90;;;;;;;;;;5031498;28;20104;-75
2021/07/31 05:37:31;;;;;;;4.83;2.20;;;;;;;;;;5015447;28;20079;-75
2021/07/31 05:39:56;;;;;;;6.13;2.10;;;;;;;;;;5017564;28;20435;-75
2021/07/31 05:42:21;;;;;;;5.00;2.10;;;;;;;;;;5018592;28;20021;-75
2021/07/31 05:44:47;;;;;;;4.73;2.00;;;;;;;;;;5018620;28;20507;-76
2021/07/31 05:47:12;;;;;;;5.53;1.90;;;;;;;;;;5002166;28;20441;-76
2021/07/31 05:49:37;;;;;;;4.93;1.80;;;;;;;;;;5018746;28;20482;-76
2021/07/31 05:52:04;;;;;;;4.73;2.00;;;;;;;;;;5034864;28;20049;-76
2021/07/31 05:54:29;;;;;;;;;;;;;;;;;;5002574;28;20043;-76
2021/07/31 05:56:54;;;;;;;3.83;1.70;;;;;;;;;;5034830;28;20368;-76
2021/07/31 05:59:20;;;;;;;5.33;2.03;;;;;;;;;;5018306;28;20067;-76
2021/07/31 06:01:45;;;;;;;5.30;2.00;;;;;;;;;;5001908;28;20503;-75
2021/07/31 06:04:10;;;;;;;5.20;2.10;;;;;;;;;;5035957;28;20123;-75
2021/07/31 06:06:36;;;;;;;5.03;1.90;;;;;;;;;;5018157;28;20060;-75
2021/07/31 06:09:01;;;;;;;4.17;1.80;;;;;;;;;;5018316;28;20056;-74
2021/07/31 06:11:26;;;;;;;4.63;2.00;;;;;;;;;;5018192;28;20049;-75
2021/07/31 06:13:52;;;;;;;4.53;1.87;;;;;;;;;;5034609;28;20065;-75
2021/07/31 06:16:17;;;;;;;6.00;1.90;;;;;;;;;;5017858;28;20040;-76
2021/07/31 06:18:42;;;;;;;4.43;1.90;;;;;;;;;;5017947;28;20108;-75
2021/07/31 06:21:15;;;;;;;4.43;1.70;;;;;;;;;;5017731;28;20032;-75
2021/07/31 06:23:40;;;;;;;4.20;1.88;;;;;;;;;;5001687;28;20032;-75
2021/07/31 06:26:07;;;;;;;5.17;2.20;;;;;;;;;;5017892;28;20053;-75
2021/07/31 06:28:33;;;;;;;4.53;1.90;;;;;;;;;;5001810;28;20029;-75
2021/07/31 06:30:58;;;;;;;4.43;1.60;;;;;;;;;;5034473;28;20040;-75
2021/07/31 06:33:23;;;;;;;4.87;1.97;;;;;;;;;;5017704;28;20053;-75
2021/07/31 06:35:48;;;;;;;4.03;2.00;;;;;;;;;;5001448;28;20480;-75
2021/07/31 06:38:14;;;;;;;6.10;2.03;;;;;;;;;;5017670;28;20492;-75
2021/07/31 06:40:41;;;;;;;4.37;1.67;;;;;;;;;;5017511;28;20491;-75
2021/07/31 06:43:06;;;;;;;5.57;2.08;;;;;;;;;;5017551;28;20080;-75
2021/07/31 06:45:33;;;;;;;;;;;;;;;;;;5018265;28;20128;-75
2021/07/31 06:47:58;;;;;;;4.85;1.77;;;;;;;;;;5034050;28;20000;-75
2021/07/31 06:50:23;;;;;;;3.57;1.73;;;;;;;;;;5034845;28;20384;-75
2021/07/31 06:52:49;;;;;;;3.80;1.87;;;;;;;;;;5033837;28;20374;-75
2021/07/31 06:55:14;;;;;;;3.83;1.70;;;;;;;;;;5017523;28;20068;-75
2021/07/31 06:57:39;;;;;;;3.97;1.80;;;;;;;;;;5017236;28;20063;-75
2021/07/31 07:00:05;;;;;;;4.87;1.70;;;;;;;;;;5001035;28;20049;-75
2021/07/31 07:02:30;;;;;;;5.68;2.00;;;;;;;;;;5000755;28;20029;-75
2021/07/31 07:04:56;;;;;;;5.80;1.80;;;;;;;;;;5017053;28;20041;-75
2021/07/31 07:07:21;;;;;;;5.43;1.93;;;;;;;;;;5017153;28;20104;-75
2021/07/31 07:09:47;;;;;;;4.80;2.00;;;;;;;;;;5033648;28;20044;-75
2021/07/31 07:12:12;;;;;;;5.83;2.00;;;;;;;;;;5016962;28;20026;-75
2021/07/31 07:14:37;;;;;;;4.40;1.90;;;;;;;;;;5017040;28;20060;-75
2021/07/31 07:17:06;;;;;;;5.33;1.70;;;;;;;;;;5016736;28;20060;-75
2021/07/31 07:19:31;;;;;;;4.72;1.90;;;;;;;;;;5016761;28;20033;-75
2021/07/31 07:21:57;;;;;;;5.72;1.92;;;;;;;;;;5033384;28;20429;-75
2021/07/31 07:24:22;;;;;;;4.10;1.73;;;;;;;;;;5016786;28;20038;-75
2021/07/31 07:26:48;;;;;;;3.80;1.47;;;;;;;;;;5016734;28;20076;-75
2021/07/31 07:29:13;;;;;;;4.73;1.73;;;;;;;;;;5033143;28;20057;-75
2021/07/31 07:31:38;;;;;;;5.07;2.10;;;;;;;;;;5016597;28;20041;-75
2021/07/31 07:34:04;;;;;;;4.20;1.80;;;;;;;;;;5033108;28;20061;-75
2021/07/31 07:36:29;;;;;;;4.03;1.60;;;;;;;;;;5034209;28;20488;-75
2021/07/31 07:38:54;;;;;;;4.40;1.70;;;;;;;;;;5016623;28;20459;-75
2021/07/31 07:41:20;;;;;;;5.00;2.00;;;;;;;;;;5016951;28;20036;-75
2021/07/31 07:43:45;;;;;;;5.33;2.07;;;;;;;;;;5000010;28;20105;-75
2021/07/31 07:46:14;;;;;;;5.63;1.97;;;;;;;;;;5016476;28;20511;-74
2021/07/31 07:48:40;;;;;;;6.05;2.20;;;;;;;;;;5016338;28;20026;-75
2021/07/31 07:51:06;;;;;;;4.50;1.75;;;;;;;;;;5032884;28;20096;-75
2021/07/31 07:53:31;;;;;;;4.37;1.80;;;;;;;;;;5016228;28;20112;-75
2021/07/31 07:55:56;;;;;;;5.90;2.10;;;;;;;;;;4999973;28;20063;-74
2021/07/31 07:58:22;;;;;;;5.93;2.10;;;;;;;;;;5032773;28;20025;-75
2021/07/31 08:00:47;;;;;;;4.27;1.87;;;;;;;;;;5016384;28;20079;-74
2021/07/31 08:03:13;;;;;;;4.03;1.80;;;;;;;;;;5015604;28;20387;-75
2021/07/31 08:05:39;;;;;;;5.45;2.05;;;;;;;;;;5016208;28;20104;-75
2021/07/31 08:08:05;;;;;;;4.40;2.10;;;;;;;;;;5016204;28;20530;-75
2021/07/31 08:10:31;;;;;;;5.53;2.20;;;;;;;;;;5032485;28;20496;-74
2021/07/31 08:12:56;;;;;;;4.60;1.87;;;;;;;;;;5016033;28;20116;-75
2021/07/31 08:15:21;;;;;;;4.40;2.00;;;;;;;;;;5032397;28;20107;-76
2021/07/31 08:17:47;;;;;;;3.90;1.97;;;;;;;;;;5015785;28;20033;-75
2021/07/31 08:20:12;;;;;;;3.40;1.90;;;;;;;;;;5032500;28;20057;-75
2021/07/31 08:22:37;;;;;;;3.53;1.90;;;;;;;;;;4999341;28;20029;-75
2021/07/31 08:25:03;;;;;;;4.13;1.80;;;;;;;;;;5015757;28;20120;-75
2021/07/31 08:27:29;;;;;;;3.97;1.87;;;;;;;;;;5015590;28;20033;-74
2021/07/31 08:29:54;;;;;;;3.67;1.98;;;;;;;;;;5032219;28;20031;-74
2021/07/31 08:32:19;;;;;;;3.67;1.77;;;;;;;;;;5015655;28;20025;-75
2021/07/31 08:34:45;;;;;;;3.80;1.87;;;;;;;;;;4999220;28;20120;-75
2021/07/31 08:37:11;;;;;;;4.13;1.80;;;;;;;;;;4999878;28;20126;-76
2021/07/31 08:39:37;;;;;;;4.20;1.80;;;;;;;;;;5015969;28;20032;-76
2021/07/31 08:42:04;;;;;;;3.60;2.00;;;;;;;;;;5015533;28;20026;-76
2021/07/31 08:44:29;;;;;;;3.10;1.83;;;;;;;;;;4999519;28;20026;-75
2021/07/31 08:46:54;;;;;;;3.30;1.83;;;;;;;;;;5015434;28;20130;-76
2021/07/31 08:49:20;;;;;;;3.17;2.00;;;;;;;;;;5015254;28;20126;-76
2021/07/31 08:51:48;;;;;;;3.10;1.73;;;;;;;;;;5015297;28;20112;-76
2021/07/31 08:54:14;;;;;;;3.67;1.98;;;;;;;;;;4999139;28;20018;-76
2021/07/31 08:56:42;;;;;;;3.40;1.93;;;;;;;;;;5015400;28;20499;-76
2021/07/31 08:59:08;;;;;;;4.10;1.88;;;;;;;;;;5015325;28;20033;-76
2021/07/31 09:01:33;;;;;;;4.07;2.27;;;;;;;;;;5015240;28;20036;-76
2021/07/31 09:04:09;;;;;;;3.50;2.00;;;;;;;;;;5032072;28;20112;-76
2021/07/31 09:06:34;;;;;;;3.55;2.00;;;;;;;;;;5016359;28;20068;-76
2021/07/31 09:08:59;;;;;;;3.33;1.83;;;;;;;;;;5031645;28;20053;-76
2021/07/31 09:11:25;;;;;;;3.37;1.70;;;;;;;;;;5015184;28;20060;-76
2021/07/31 09:14:16;;;;;;;3.30;1.80;;;;;;;;;;5017682;28;20080;-76
2021/07/31 09:16:43;;;;;;;3.97;1.90;;;;;;;;;;5035477;28;20037;-76
2021/07/31 09:19:10;;;;;;;3.50;2.00;;;;;;;;;;5019334;28;20032;-76
2021/07/31 09:21:35;;;;;;;3.63;1.88;;;;;;;;;;5019063;28;20087;-76
2021/07/31 09:24:01;;;;;;;3.30;1.83;;;;;;;;;;5018966;28;20017;-76
2021/07/31 09:26:31;;;;;;;3.30;1.90;;;;;;;;;;5002552;28;20500;-75
2021/07/31 09:29:10;;;;;;;3.72;1.98;;;;;;;;;;5019130;28;20514;-76
2021/07/31 09:31:36;;;;;;;3.78;1.88;;;;;;;;;;5035427;28;20021;-75
2021/07/31 09:34:03;;;;;;;4.30;2.25;;;;;;;;;;5002756;28;20029;-76
2021/07/31 09:36:38;;;;;;;3.70;1.95;;;;;;;;;;5019074;28;20041;-76
2021/07/31 09:39:05;;;;;;;3.33;1.60;;;;;;;;;;5018827;28;20119;-76
2021/07/31 09:41:36;;;;;;;4.32;2.00;;;;;;;;;;5002321;28;20155;-76
2021/07/31 09:44:12;;;;;;;4.03;1.80;;;;;;;;;;5004217;28;20425;-75
2021/07/31 09:46:41;;;;;;;4.03;2.00;;;;;;;;;;5003130;28;20025;-76
2021/07/31 09:49:11;;;;;;;4.00;2.13;;;;;;;;;;5035183;28;20268;-76
2021/07/31 09:51:44;;;;;;;4.30;2.08;;;;;;;;;;5019023;28;20388;-76
2021/07/31 09:54:11;;;;;;;3.78;1.75;;;;;;;;;;5018973;28;20114;-75
2021/07/31 09:56:42;;;;;;;3.47;1.90;;;;;;;;;;5018790;28;20040;-75
2021/07/31 09:59:08;;;;;;;4.50;2.08;;;;;;;;;;5034799;28;20029;-75
2021/07/31 10:01:40;;;;;;;3.55;1.85;;;;;;;;;;5001780;28;20026;-75
2021/07/31 10:04:05;;;;;;;4.00;1.80;;;;;;;;;;5002547;28;20439;-75
2021/07/31 10:06:31;;;;;;;4.57;1.80;;;;;;;;;;5034694;28;20029;-75
2021/07/31 10:08:58;;;;;;;3.53;1.70;;;;;;;;;;5018454;28;20464;-75
2021/07/31 10:11:23;;;;;;;4.18;1.92;;;;;;;;;;5018299;28;20021;-75
2021/07/31 10:13:49;;;;;;;3.73;1.87;;;;;;;;;;5018393;28;20473;-75
2021/07/31 10:16:16;;;;;;;3.50;1.83;;;;;;;;;;5018037;28;20120;-76
2021/07/31 10:21:10;;;;;;;4.32;1.92;;;;;;;;;;4994695;28;20062;-76
2021/07/31 10:23:57;;;;;;;4.70;2.13;;;;;;;;;;4963223;28;20022;-76
2021/07/31 10:26:23;;;;;;;4.45;1.95;;;;;;;;;;4978031;28;20509;-76
2021/07/31 10:28:48;;;;;;;4.93;1.97;;;;;;;;;;4962664;28;20064;-76
2021/07/31 10:31:33;;;;;;;3.47;1.80;;;;;;;;;;4978914;28;20184;-76
2021/07/31 10:33:58;;;;;;;4.32;1.88;;;;;;;;;;4962684;28;20481;-76
2021/07/31 10:36:31;;;;;;;4.97;1.93;;;;;;;;;;4962810;28;20057;-76
2021/07/31 10:38:58;;;;;;;4.63;1.75;;;;;;;;;;4962950;28;20065;-76
2021/07/31 10:41:55;;;;;;;4.20;1.83;;;;;;;;;;4962908;28;20085;-76
2021/07/31 10:44:21;;;;;;;5.18;2.08;;;;;;;;;;4978715;28;20041;-76
2021/07/31 10:46:46;;;;;;;4.60;1.80;;;;;;;;;;4962480;28;20053;-76
2021/07/31 10:49:36;;;;;;;5.07;2.03;;;;;;;;;;4978505;28;20053;-75
2021/07/31 10:52:01;;;;;;;4.53;1.80;;;;;;;;;;4978486;28;20026;-76
2021/07/31 10:54:59;;;;;;;5.00;1.80;;;;;;;;;;4995707;28;20037;-76
2021/07/31 10:58:06;;;;;;;4.03;1.92;;;;;;;;;;4995653;28;20027;-76
2021/07/31 11:00:34;;;;;;;3.35;1.73;;;;;;;;;;4992665;28;20097;-76
2021/07/31 11:03:06;;;;;;;4.18;1.80;;;;;;;;;;4962615;28;20030;-76
2021/07/31 11:05:49;;;;;;;3.53;1.60;;;;;;;;;;4962375;28;20033;-76
2021/07/31 11:08:15;;;;;;;3.58;1.75;;;;;;;;;;4995423;28;20064;-76
2021/07/31 11:10:44;;;;;;;5.03;1.73;;;;;;;;;;4962137;28;20019;-76
2021/07/31 11:13:10;;;;;;;3.90;1.70;;;;;;;;;;4946629;28;20034;-76
2021/07/31 11:15:36;;;;;;;4.28;1.75;;;;;;;;;;4977980;28;20019;-76
2021/07/31 11:18:02;;;;;;;3.88;1.80;;;;;;;;;;4945830;28;20034;-76
2021/07/31 11:20:31;;;;;;;4.85;1.75;;;;;;;;;;4961637;28;20034;-76
2021/07/31 11:22:57;;;;;;;4.50;1.80;;;;;;;;;;4977919;28;20500;-76
2021/07/31 11:25:22;;;;;;;3.53;1.60;;;;;;;;;;4961738;28;20085;-76
2021/07/31 11:27:54;;;;;;;4.43;1.80;;;;;;;;;;4977738;28;20025;-76
2021/07/31 11:30:19;;;;;;;5.40;1.83;;;;;;;;;;4995254;28;20058;-76
2021/07/31 11:32:45;;;;;;;4.20;1.77;;;;;;;;;;4995034;28;20062;-76
2021/07/31 11:35:25;;;;;;;5.00;1.67;;;;;;;;;;4977548;28;20033;-76
2021/07/31 11:37:50;;;;;;;4.60;1.63;;;;;;;;;;4960680;28;20450;-76
2021/07/31 11:40:15;;;;;;;5.87;2.10;;;;;;;;;;4961510;28;20105;-76
2021/07/31 11:42:41;;;;;;;5.00;1.90;;;;;;;;;;4994952;28;20478;-76
2021/07/31 11:45:07;;;;;;;5.03;1.90;;;;;;;;;;4945251;28;20073;-76
2021/07/31 11:47:32;;;;;;;4.28;1.67;;;;;;;;;;4945469;28;20033;-76
2021/07/31 11:50:07;;;;;;;5.63;1.80;;;;;;;;;;4994758;28;20486;-76
2021/07/31 11:52:32;;;;;;;4.03;1.70;;;;;;;;;;4961140;28;20018;-76
2021/07/31 11:54:58;;;;;;;5.20;1.80;;;;;;;;;;4961117;28;20033;-76
2021/07/31 11:57:23;;;;;;;4.27;1.80;;;;;;;;;;4977282;28;20540;-76
2021/07/31 11:59:48;;;;;;;4.90;1.97;;;;;;;;;;4961080;28;20050;-76
2021/07/31 12:02:14;;;;;;;4.67;1.70;;;;;;;;;;4960892;28;20425;-76
2021/07/31 12:04:44;;;;;;;5.07;1.83;;;;;;;;;;4977056;28;20065;-76
2021/07/31 12:07:13;;;;;;;3.65;1.63;;;;;;;;;;4960967;28;20022;-76
2021/07/31 12:09:38;;;;;;;4.43;1.83;;;;;;;;;;4977028;28;20022;-76
2021/07/31 12:12:04;;;;;;;4.70;1.70;;;;;;;;;;4994244;28;20036;-75
2021/07/31 12:14:37;;;;;;;4.63;1.50;;;;;;;;;;4944695;28;20101;-76
2021/07/31 12:17:22;;;;;;;4.70;1.80;;;;;;;;;;4961135;28;20030;-76
2021/07/31 12:19:54;;;;;;;5.60;2.05;;;;;;;;;;4994335;28;20022;-76
2021/07/31 12:22:25;;;;;;;3.67;1.50;;;;;;;;;;4977297;28;20027;-76
2021/07/31 12:25:13;;;;;;;4.07;1.63;;;;;;;;;;4961242;28;20034;-76
2021/07/31 12:27:58;;;;;;;4.57;1.75;;;;;;;;;;4960632;28;20084;-76
2021/07/31 12:30:36;;;;;;;5.35;1.80;;;;;;;;;;4976508;28;20026;-76
2021/07/31 12:33:07;;;;;;;4.50;1.83;;;;;;;;;;4976477;28;20026;-76
2021/07/31 12:35:46;;;;;;;4.35;1.70;;;;;;;;;;4993882;28;20481;-75
2021/07/31 12:38:20;;;;;;;4.07;1.70;;;;;;;;;;4961538;28;20041;-76
2021/07/31 12:40:47;;;;;;;5.97;2.00;;;;;;;;;;4945706;28;20018;-76
2021/07/31 12:43:14;;;;;;;5.60;1.60;;;;;;;;;;4993752;28;20053;-76
2021/07/31 12:45:40;;;;;;;3.80;1.55;;;;;;;;;;4993802;28;20453;-76
2021/07/31 12:48:06;;;;;;;5.38;1.60;;;;;;;;;;4960090;28;20029;-76
2021/07/31 12:50:32;;;;;;;4.07;1.60;;;;;;;;;;4993763;28;20061;-76
2021/07/31 12:52:58;;;;;;;5.20;2.10;;;;;;;;;;4976519;28;20030;-76
2021/07/31 12:55:25;;;;;;;4.07;1.75;;;;;;;;;;4976512;28;20058;-76
2021/07/31 12:57:50;;;;;;;4.30;1.70;;;;;;;;;;4976635;28;20118;-76
2021/07/31 13:00:16;;;;;;;5.63;1.90;;;;;;;;;;4976140;28;20117;-76
2021/07/31 13:02:42;;;;;;;;;;;;;;;;;;4994344;28;20478;-76
2021/07/31 13:05:07;;;;;;;4.93;1.88;;;;;;;;;;4960180;28;19910;-76
2021/07/31 13:07:32;;;;;;;5.67;2.00;;;;;;;;;;4976582;28;20037;-76
2021/07/31 13:09:58;;;;;;;3.73;1.60;;;;;;;;;;4960086;28;20117;-76
2021/07/31 13:12:23;;;;;;;4.63;1.67;;;;;;;;;;4993525;28;20107;-76
2021/07/31 13:14:48;;;;;;;6.50;2.10;;;;;;;;;;4960287;28;20061;-76
2021/07/31 13:17:14;;;;;;;4.50;1.73;;;;;;;;;;4976189;28;20054;-76
2021/07/31 13:19:39;;;;;;;5.10;1.97;;;;;;;;;;4959856;28;20123;-76
2021/07/31 13:22:04;;;;;;;4.13;1.60;;;;;;;;;;4993294;28;20028;-76
2021/07/31 13:24:30;;;;;;;4.27;1.70;;;;;;;;;;4959958;28;20176;-76
2021/07/31 13:26:55;;;;;;;4.00;1.83;;;;;;;;;;4976158;28;20026;-76
2021/07/31 13:29:20;;;;;;;4.57;1.63;;;;;;;;;;4976060;28;20113;-76
2021/07/31 13:31:46;;;;;;;5.30;1.90;;;;;;;;;;4960081;28;20061;-76
2021/07/31 13:34:15;;;;;;;4.15;1.40;;;;;;;;;;4976149;28;20050;-76
2021/07/31 13:36:41;;;;;;;6.57;2.00;;;;;;;;;;4976273;28;20385;-76
2021/07/31 13:39:07;;;;;;;4.90;1.55;;;;;;;;;;4993431;28;20018;-76
2021/07/31 13:41:32;;;;;;;5.07;1.80;;;;;;;;;;4943844;28;20187;-76
2021/07/31 13:44:00;;;;;;;5.47;1.70;;;;;;;;;;4960012;28;20117;-76
2021/07/31 13:46:25;;;;;;;4.22;1.75;;;;;;;;;;4959907;28;20030;-76
2021/07/31 13:48:50;;;;;;;5.40;1.77;;;;;;;;;;4975984;28;20153;-76
2021/07/31 13:51:16;;;;;;;3.93;1.60;;;;;;;;;;4975932;28;20018;-76
2021/07/31 13:53:41;;;;;;;3.63;1.47;;;;;;;;;;4975799;28;20176;-76
2021/07/31 13:56:06;;;;;;;5.90;1.60;;;;;;;;;;4959822;28;20101;-76
2021/07/31 13:58:32;;;;;;;5.43;1.80;;;;;;;;;;4975816;28;20029;-76
2021/07/31 14:00:57;;;;;;;5.30;1.67;;;;;;;;;;4977978;28;20050;-76
2021/07/31 14:03:23;;;;;;;4.05;1.65;;;;;;;;;;4963248;28;20492;-76
2021/07/31 14:05:48;;;;;;;4.37;1.77;;;;;;;;;;4979455;28;20032;-76
2021/07/31 14:08:13;;;;;;;4.57;1.60;;;;;;;;;;4996568;28;20064;-76
2021/07/31 14:10:39;;;;;;;5.90;1.60;;;;;;;;;;4996505;28;20069;-76
2021/07/31 14:13:04;;;;;;;4.40;1.60;;;;;;;;;;4996875;28;20104;-76
2021/07/31 14:15:30;;;;;;;3.60;1.60;;;;;;;;;;4996455;28;20022;-76
2021/07/31 14:17:55;;;;;;;4.70;1.70;;;;;;;;;;4979032;28;20058;-76
2021/07/31 14:20:20;;;;;;;3.23;1.33;;;;;;;;;;4978671;28;20053;-76
2021/07/31 14:22:46;;;;;;;5.03;1.80;;;;;;;;;;4978929;28;20051;-76
2021/07/31 14:25:11;;;;;;;3.83;1.73;;;;;;;;;;4978911;28;20460;-76
2021/07/31 14:27:36;;;;;;;4.73;1.73;;;;;;;;;;4978973;28;20022;-76
2021/07/31 14:30:03;;;;;;;5.10;2.00;;;;;;;;;;4978889;28;20026;-76
2021/07/31 14:32:28;;;;;;;4.28;1.73;;;;;;;;;;4962613;28;20026;-76
2021/07/31 14:34:53;;;;;;;4.67;1.63;;;;;;;;;;4979381;28;20481;-76
2021/07/31 14:37:19;;;;;;;4.33;1.73;;;;;;;;;;4996044;28;20058;-76
2021/07/31 14:39:44;;;;;;;3.93;1.50;;;;;;;;;;4978702;28;20201;-76
2021/07/31 14:42:10;;;;;;;3.87;1.60;;;;;;;;;;4978619;28;20065;-76